Time;durP1;ratioP1;P1;durP2;ratioP2;P2;SDS_P1;SDS_P2;PMS_P1;PMS_P2;Temp;Humidity;BMP_temperature;BMP_pressure;BME280_temperature;BME280_humidity;BME280_pressure;Samples;Min_cycle;Max_cycle;Signal;HPM_P1;HPM_P2
2022/09/08 00:02:47;;;;;;;4.03;1.88;;;;;;;;;;10519161;28;20430;-80
2022/09/08 00:08:09;;;;;;;2.90;1.10;;;;;;;;;;10491420;28;20273;-79
2022/09/08 00:13:32;;;;;;;4.00;1.55;;;;;;;;;;10478468;28;20219;-80
2022/09/08 00:18:53;;;;;;;1.58;1.45;;;;;;;;;;10526758;28;20197;-80
2022/09/08 00:24:15;;;;;;;1.38;1.13;;;;;;;;;;10516732;28;20273;-80
2022/09/08 00:29:37;;;;;;;2.05;1.20;;;;;;;;;;10518837;28;20247;-79
2022/09/08 00:35:00;;;;;;;1.88;1.30;;;;;;;;;;10518415;28;20480;-80
2022/09/08 00:40:23;;;;;;;2.47;1.65;;;;;;;;;;10518476;28;20192;-80
2022/09/08 00:45:49;;;;;;;2.88;2.00;;;;;;;;;;10517837;28;20192;-80
2022/09/08 00:51:16;;;;;;;2.13;1.48;;;;;;;;;;10510135;28;20240;-80
2022/09/08 00:56:40;;;;;;;1.70;1.02;;;;;;;;;;10503730;28;20223;-80
2022/09/08 01:02:02;;;;;;;1.17;1.08;;;;;;;;;;10503643;28;20217;-80
2022/09/08 01:13:12;;;;;;;0.95;0.95;;;;;;;;;;10524527;28;20222;-80
2022/09/08 01:18:36;;;;;;;1.80;1.20;;;;;;;;;;10548390;28;20479;-80
2022/09/08 01:24:26;;;;;;;1.13;0.90;;;13.50;1.00;;;;;;10512695;28;20190;-80
2022/09/08 01:29:48;;;;;;;1.70;1.20;;;13.50;1.00;;;;;;10510962;28;20227;-80
2022/09/08 01:35:09;;;;;;;1.35;1.05;;;13.50;1.00;;;;;;10525073;28;20210;-80
2022/09/08 01:40:31;;;;;;;2.13;1.48;;;;;;;;;;10525915;28;20273;-80
2022/09/08 01:45:55;;;;;;;1.80;1.20;;;;;;;;;;10510001;28;20184;-80
2022/09/08 01:51:17;;;;;;;2.33;1.38;;;;;;;;;;10503329;28;20276;-79
2022/09/08 01:56:39;;;;;;;2.08;1.30;;;;;;;;;;10510318;28;20198;-79
2022/09/08 02:02:02;;;;;;;2.08;1.73;;;;;;;;;;10509734;28;20532;-79
2022/09/08 02:07:25;;;;;;;2.10;1.42;;;;;;;;;;10501416;28;20203;-79
2022/09/08 02:12:47;;;;;;;1.58;1.30;;;;;;;;;;10482123;28;20266;-79
2022/09/08 02:18:08;;;;;;;2.30;1.60;;;13.10;1.00;;;;;;10504245;28;20422;-79
2022/09/08 02:23:30;;;;;;;4.60;1.90;;;13.10;99.90;;;;;;10511295;28;20188;-79
2022/09/08 02:28:53;;;;;;;3.85;2.17;;;13.10;99.90;;;;;;10494858;28;20220;-79
2022/09/08 02:34:14;;;;;;;2.72;1.75;;;13.10;99.90;;;;;;10523142;28;20361;-79
2022/09/08 02:39:35;;;;;;;1.67;1.38;;;13.00;99.90;;;;;;10522770;28;20191;-79
2022/09/08 02:44:57;;;;;;;1.92;1.50;;;12.90;99.90;;;;;;10522416;28;20189;-79
2022/09/08 02:50:18;;;;;;;2.35;1.67;;;13.00;99.90;;;;;;10516629;28;20272;-79
2022/09/08 02:55:42;;;;;;;2.38;1.70;;;12.90;1.00;;;;;;10537107;28;20196;-79
2022/09/08 03:01:05;;;;;;;2.90;1.50;;;12.90;1.00;;;;;;10521561;28;20495;-79
2022/09/08 03:06:26;;;;;;;1.90;1.42;;;12.90;1.00;;;;;;10521537;28;20362;-79
2022/09/08 03:11:48;;;;;;;1.88;1.50;;;12.90;99.90;;;;;;10506805;28;20237;-79
2022/09/08 03:17:09;;;;;;;2.85;1.80;;;12.90;99.90;;;;;;10516943;28;20199;-79
2022/09/08 03:22:31;;;;;;;2.58;1.52;;;12.90;99.90;;;;;;10474373;28;20198;-79
2022/09/08 03:27:52;;;;;;;4.38;1.27;;;12.80;99.90;;;;;;10487250;28;20186;-79
2022/09/08 03:33:14;;;;;;;2.70;1.40;;;12.80;99.90;;;;;;10505491;28;20223;-79
2022/09/08 03:38:36;;;;;;;2.95;1.45;;;12.90;99.90;;;;;;10520598;28;20197;-79
2022/09/08 03:43:57;;;;;;;2.28;1.80;;;12.80;99.90;;;;;;10491531;28;20206;-79
2022/09/08 03:49:18;;;;;;;1.63;1.25;;;12.80;99.90;;;;;;10500399;28;20270;-79
2022/09/08 03:54:48;;;;;;;2.35;1.40;;;12.80;99.90;;;;;;10519360;28;20225;-78
2022/09/08 04:00:12;;;;;;;2.13;1.73;;;12.70;1.00;;;;;;10505528;28;20569;-79
2022/09/08 04:05:34;;;;;;;1.93;1.63;;;12.60;1.00;;;;;;10498009;28;20250;-79
2022/09/08 04:10:56;;;;;;;3.75;1.60;;;12.60;1.00;;;;;;10491516;28;20514;-79
2022/09/08 04:16:18;;;;;;;2.45;1.58;;;12.60;1.00;;;;;;10483565;28;20189;-79
2022/09/08 04:21:40;;;;;;;2.85;1.92;;;12.60;1.00;;;;;;10533128;28;20194;-79
2022/09/08 04:27:01;;;;;;;6.45;2.55;;;12.60;1.00;;;;;;10519548;28;20190;-79
2022/09/08 04:32:22;;;;;;;6.18;2.92;;;12.50;1.00;;;;;;10490270;28;20230;-79
2022/09/08 04:37:44;;;;;;;8.68;3.80;;;12.50;1.00;;;;;;10518121;28;20277;-79
2022/09/08 04:43:05;;;;;;;9.60;4.90;;;12.50;1.00;;;;;;10518109;28;20496;-79
2022/09/08 04:48:29;;;;;;;5.80;3.60;;;12.50;1.00;;;;;;10514165;28;20234;-79
2022/09/08 04:53:55;;;;;;;5.73;3.50;;;12.50;1.00;;;;;;10489881;28;20299;-79
2022/09/08 04:59:17;;;;;;;5.63;2.50;;;12.40;57.90;;;;;;10503744;28;20567;-79
2022/09/08 05:04:38;;;;;;;3.47;2.17;;;12.50;99.80;;;;;;10532528;28;20202;-79
2022/09/08 05:10:00;;;;;;;3.77;2.60;;;12.60;99.90;;;;;;10476864;28;20218;-79
2022/09/08 05:15:22;;;;;;;7.60;2.17;;;12.60;99.90;;;;;;10461972;28;20208;-79
2022/09/08 05:20:52;;;;;;;4.50;2.83;;;12.70;72.90;;;;;;10520875;28;20217;-79
2022/09/08 05:26:15;;;;;;;3.63;2.73;;;12.80;1.00;;;;;;10503333;28;20403;-79
2022/09/08 05:31:37;;;;;;;5.25;1.90;;;12.90;1.00;;;;;;10516994;28;20291;-79
2022/09/08 05:36:58;;;;;;;4.32;2.30;;;13.00;1.00;;;;;;10516972;28;20214;-80
2022/09/08 05:42:19;;;;;;;2.50;1.92;;;13.20;1.00;;;;;;10517008;28;20300;-79
2022/09/08 05:47:41;;;;;;;3.75;2.50;;;13.40;1.00;;;;;;10488424;28;20227;-79
2022/09/08 05:53:03;;;;;;;3.22;1.83;;;13.60;99.90;;;;;;10475836;28;20232;-79
2022/09/08 05:58:26;;;;;;;3.40;2.00;;;13.80;99.90;;;;;;10484721;28;20193;-79
2022/09/08 06:03:51;;;;;;;4.00;2.22;;;14.00;1.00;;;;;;10484353;28;20196;-79
2022/09/08 06:09:13;;;;;;;7.15;2.28;;;14.20;1.00;;;;;;10481781;28;20519;-79
2022/09/08 06:14:34;;;;;;;2.70;1.65;;;14.50;1.00;;;;;;10468010;28;20209;-79
2022/09/08 06:19:56;;;;;;;2.50;1.48;;;14.50;1.00;;;;;;10529303;28;20208;-80
2022/09/08 06:25:17;;;;;;;2.60;1.50;;;14.90;99.90;;;;;;10467483;28;20497;-79
2022/09/08 06:30:38;;;;;;;3.88;1.60;;;15.10;99.90;;;;;;10481637;28;20428;-80
2022/09/08 06:36:24;;;;;;;5.63;2.58;;;15.70;70.70;;;;;;10471706;28;20202;-80
2022/09/08 06:41:54;;;;;;;4.45;2.50;;;16.90;99.90;;;;;;10485165;28;20238;-80
2022/09/08 06:47:20;;;;;;;3.22;1.90;;;17.80;1.00;;;;;;10508117;28;20482;-80
2022/09/08 06:52:47;;;;;;;7.65;2.17;;;18.60;99.90;;;;;;10508914;28;20295;-80
2022/09/08 06:58:31;;;;;;;5.15;2.35;;;19.30;99.90;;;;;;10481754;28;20248;-79
2022/09/08 07:04:05;;;;;;;2.40;1.85;;;;;;;;;;10415473;28;20221;-80
2022/09/08 07:10:15;;;;;;;5.63;2.05;;;20.90;1.00;;;;;;10433986;28;20219;-79
2022/09/08 07:16:02;;;;;;;6.28;1.95;;;21.70;1.00;;;;;;10385749;28;20205;-79
2022/09/08 07:21:42;;;;;;;5.45;2.50;;;22.10;1.00;;;;;;10357051;28;20204;-79
2022/09/08 07:27:10;;;;;;;7.68;2.20;;;22.30;1.00;;;;;;10374483;28;20658;-80
2022/09/08 07:32:36;;;;;;;6.43;2.22;;;22.20;1.00;;;;;;10371146;28;20213;-78
2022/09/08 07:38:08;;;;;;;9.52;3.90;;;22.70;1.00;;;;;;10344825;28;20524;-78
2022/09/08 07:43:30;;;;;;;8.68;2.30;;;23.40;1.00;;;;;;10387459;28;20779;-79
2022/09/08 07:49:09;;;;;;;8.70;2.15;;;23.70;1.00;;;;;;10355435;28;20221;-81
2022/09/08 07:54:42;;;;;;;8.60;2.40;;;24.00;1.00;;;;;;10413313;28;20246;-77
2022/09/08 08:00:17;;;;;;;6.65;1.70;;;23.70;1.00;;;;;;10430422;28;20220;-77
2022/09/08 08:05:49;;;;;;;12.60;5.60;;;23.70;1.00;;;;;;10392859;28;20217;-77
2022/09/08 08:11:26;;;;;;;7.63;1.88;;;24.20;1.00;;;;;;10421932;28;20207;-80
2022/09/08 08:17:00;;;;;;;4.47;1.50;;;24.30;1.00;;;;;;10431479;28;20196;-75
2022/09/08 17:18:48;;;;;;;7.15;2.42;;;19.50;99.90;;;;;;10579443;28;20908;-75
2022/09/08 17:24:37;;;;;;;5.40;2.72;;;19.20;99.90;;;;;;10583166;28;20255;-78
2022/09/08 17:30:21;;;;;;;7.57;3.33;;;19.10;99.90;;;;;;10566298;28;20202;-75
2022/09/08 17:35:56;;;;;;;9.05;3.78;;;19.00;99.90;;;;;;10595410;28;20214;-76
2022/09/08 17:41:38;;;;;;;11.27;2.85;;;19.00;99.90;;;;;;10538342;28;20568;-83
2022/09/08 17:47:44;;;;;;;5.15;2.72;;;18.90;99.90;;;;;;10536940;28;20203;-77
2022/09/08 17:53:18;;;;;;;4.72;2.10;;;18.80;99.90;;;;;;10500260;28;20335;-75
2022/09/08 17:58:41;;;;;;;7.15;3.55;;;18.70;99.90;;;;;;10505178;28;20219;-75
2022/09/08 18:04:08;;;;;;;6.95;2.88;;;18.50;99.90;;;;;;10442086;28;20397;-76
2022/09/08 18:09:32;;;;;;;6.10;2.20;;;18.60;99.90;;;;;;10421750;28;20204;-75
2022/09/08 18:15:14;;;;;;;6.05;2.75;;;18.50;1.00;;;;;;10424978;28;20232;-76
2022/09/08 18:20:37;;;;;;;6.40;2.35;;;18.40;99.90;;;;;;10501061;28;20218;-77
2022/09/08 18:26:22;;;;;;;5.57;2.00;;;18.30;99.90;;;;;;10491985;28;20203;-76
2022/09/08 18:32:09;;;;;;;6.60;2.00;;;18.30;1.00;;;;;;10545551;28;20237;-78
2022/09/08 18:37:31;;;;;;;4.15;1.75;;;18.30;1.00;;;;;;10483433;28;20237;-76
2022/09/08 18:43:16;;;;;;;5.75;2.70;;;18.20;1.00;;;;;;10483147;28;20197;-80
2022/09/08 18:48:52;;;;;;;2.85;1.92;;;18.30;99.90;;;;;;10537449;28;20204;-75
2022/09/08 18:54:35;;;;;;;6.75;2.70;;;18.10;99.90;;;;;;10525557;28;20252;-76
2022/09/08 19:00:16;;;;;;;5.70;2.20;;;18.10;99.90;;;;;;10523508;28;20413;-76
2022/09/08 19:05:38;;;;;;;8.90;2.92;;;18.00;99.90;;;;;;10523459;28;20202;-83
2022/09/08 19:11:23;;;;;;;9.10;3.75;;;17.90;99.90;;;;;;10523452;28;20273;-75
2022/09/08 19:17:03;;;;;;;9.25;3.92;;;17.90;99.90;;;;;;10526788;28;20251;-75
2022/09/08 19:22:27;;;;;;;7.10;3.33;;;17.80;99.90;;;;;;10563616;28;20395;-75
2022/09/08 19:28:06;;;;;;;13.00;6.03;;;17.70;99.90;;;;;;10564780;28;20193;-73
2022/09/08 19:34:00;;;;;;;5.28;2.72;;;17.70;99.90;;;;;;10564335;28;20487;-76
2022/09/08 19:39:25;;;;;;;9.45;2.80;;;17.60;99.90;;;;;;10545973;28;20194;-76
2022/09/08 19:45:07;;;;;;;3.85;2.25;;;17.60;99.90;;;;;;10521086;28;20202;-76
2022/09/08 19:50:38;;;;;;;3.17;1.67;;;17.50;1.00;;;;;;10480421;28;20207;-75
2022/09/08 19:56:03;;;;;;;6.15;2.00;;;17.50;1.00;;;;;;10478974;28;20250;-74
2022/09/08 20:01:52;;;;;;;3.90;2.10;;;17.50;1.00;;;;;;10492610;28;20225;-75
2022/09/08 20:07:32;;;;;;;4.25;1.60;;;17.40;1.00;;;;;;10516804;28;20286;-76
2022/09/08 20:13:11;;;;;;;6.22;1.98;;;17.40;1.00;;;;;;10519971;28;20204;-76
2022/09/08 20:18:41;;;;;;;4.53;1.90;;;17.40;1.00;;;;;;10509868;28;20279;-76
2022/09/08 20:24:21;;;;;;;8.23;2.83;;;17.30;1.00;;;;;;10478849;28;20191;-75
2022/09/08 20:29:58;;;;;;;6.57;2.10;;;17.30;1.00;;;;;;10478576;28;20194;-75
2022/09/08 20:35:23;;;;;;;3.97;2.13;;;17.20;1.00;;;;;;10508466;28;20222;-76
2022/09/08 20:40:58;;;;;;;3.72;1.83;;;17.20;1.00;;;;;;10518914;28;20209;-76
2022/09/08 20:46:40;;;;;;;5.25;2.22;;;17.10;1.00;;;;;;10512909;28;20217;-76
2022/09/08 20:52:33;;;;;;;3.22;1.92;;;17.10;1.00;;;;;;10560851;28;20201;-85
2022/09/08 20:58:16;;;;;;;7.28;1.80;;;17.00;1.00;;;;;;10352114;28;20236;-85
2022/09/08 21:03:42;;;;;;;5.80;2.30;;;17.00;1.00;;;;;;10375338;28;20206;-85
2022/09/08 21:09:08;;;;;;;4.82;2.30;;;16.90;1.00;;;;;;10362349;28;20207;-82
2022/09/08 21:14:57;;;;;;;4.25;2.00;;;16.80;1.00;;;;;;10375542;28;20242;-85
2022/09/08 21:20:28;;;;;;;4.53;1.92;;;16.70;1.00;;;;;;10385949;28;20221;-76
2022/09/08 21:26:20;;;;;;;5.65;2.33;;;16.70;1.00;;;;;;10351020;28;20231;-75
2022/09/08 21:31:52;;;;;;;2.38;1.90;;;16.60;1.00;;;;;;10346273;28;20491;-75
2022/09/08 21:37:22;;;;;;;9.18;2.67;;;16.60;1.00;;;;;;10517593;28;20230;-77
2022/09/08 21:42:44;;;;;;;11.85;1.80;;;16.50;1.00;;;;;;10504038;28;20195;-76
2022/09/08 21:48:13;;;;;;;7.60;2.10;;;16.60;1.00;;;;;;10541360;28;20203;-76
2022/09/08 21:53:53;;;;;;;5.47;2.28;;;16.60;1.00;;;;;;10556752;28;20382;-75
2022/09/08 21:59:23;;;;;;;3.03;1.92;;;16.50;1.00;;;;;;10517313;28;20261;-75
2022/09/08 22:04:47;;;;;;;9.70;2.03;;;16.50;1.00;;;;;;10524722;28;20202;-77
2022/09/08 22:10:20;;;;;;;2.33;1.98;;;16.40;1.00;;;;;;10526325;28;20434;-79
2022/09/08 22:15:42;;;;;;;3.47;1.67;;;16.40;1.00;;;;;;10525921;28;20254;-78
2022/09/08 22:21:04;;;;;;;4.18;1.77;;;16.40;1.00;;;;;;10500449;28;20217;-76
2022/09/08 22:26:33;;;;;;;3.60;1.83;;;16.30;1.00;;;;;;10525438;28;20203;-75
2022/09/08 22:32:17;;;;;;;4.80;1.65;;;16.40;1.00;;;;;;10524884;28;20482;-77
2022/09/08 22:37:57;;;;;;;3.72;2.22;;;16.40;1.00;;;;;;10525577;28;20438;-77
2022/09/08 22:43:40;;;;;;;4.90;1.90;;;16.30;1.00;;;;;;10525168;28;20216;-75
2022/09/08 22:49:25;;;;;;;7.85;1.90;;;16.30;1.00;;;;;;10553906;28;20239;-75
2022/09/08 22:54:59;;;;;;;3.95;2.03;;;16.20;1.00;;;;;;10559411;28;20517;-75
2022/09/08 23:00:23;;;;;;;5.38;2.58;;;16.20;1.00;;;;;;10522744;28;20188;-76
2022/09/08 23:06:09;;;;;;;3.38;2.00;;;16.10;1.00;;;;;;10522286;28;20205;-75
2022/09/08 23:11:40;;;;;;;3.47;1.77;;;16.00;1.00;;;;;;10522616;28;20498;-75
2022/09/08 23:17:14;;;;;;;5.75;2.30;;;16.00;1.00;;;;;;10530417;28;20461;-76
2022/09/08 23:22:53;;;;;;;7.45;1.80;;;16.10;1.00;;;;;;10504985;28;20201;-76
2022/09/08 23:28:21;;;;;;;8.13;2.00;;;16.00;1.00;;;;;;10481394;28;20242;-75
2022/09/08 23:34:01;;;;;;;4.45;2.05;;;16.00;1.00;;;;;;10499051;28;20234;-81
2022/09/08 23:39:35;;;;;;;3.67;2.00;;;15.80;1.00;;;;;;10522746;28;20217;-83
2022/09/08 23:44:57;;;;;;;6.68;1.98;;;15.70;1.00;;;;;;10522394;28;20192;-76
2022/09/08 23:50:23;;;;;;;6.72;2.20;;;15.70;1.00;;;;;;10563175;28;20204;-75
2022/09/08 23:56:00;;;;;;;4.43;2.17;;;15.80;1.00;;;;;;10537569;28;20234;-76
